Time;durP1;ratioP1;P1;durP2;ratioP2;P2;SDS_P1;SDS_P2;PMS_P1;PMS_P2;Temp;Humidity;BMP_temperature;BMP_pressure;BME280_temperature;BME280_humidity;BME280_pressure;Samples;Min_cycle;Max_cycle;Signal;HPM_P1;HPM_P2
2021/12/06 00:00:37;;;;;;;;;;;;;;;;;;2090449;28;19909;-81
2021/12/06 00:01:37;;;;;;;;;;;;;;;;;;2074466;28;19948;-79
2021/12/06 00:02:37;;;;;;;;;;;;;;;;;;2074515;28;19910;-80
2021/12/06 00:03:41;;;;;;;;;;;;;;;;;;2074612;28;19936;-80
2021/12/06 00:04:41;;;;;;;;;;;;;;;;;;2074327;28;19979;-80
2021/12/06 00:05:41;;;;;;;;;;;;;;;;;;2073890;28;19921;-80
2021/12/06 00:06:43;;;;;;;;;;;;;;;;;;2073973;28;20391;-80
2021/12/06 00:07:44;;;;;;;;;;;;;;;;;;2073963;28;19987;-80
2021/12/06 00:08:45;;;;;;;;;;;;;;;;;;2073851;28;19952;-80
2021/12/06 00:09:45;;;;;;;;;;;;;;;;;;2073948;28;20279;-80
2021/12/06 00:10:50;;;;;;;;;;;;;;;;;;2074482;28;20339;-80
2021/12/06 00:11:56;;;;;;;;;;;;;;;;;;2074420;28;20369;-80
2021/12/06 00:12:57;;;;;;;;;;;;;;;;;;2074466;28;19909;-80
2021/12/06 00:13:57;;;;;;;;;;;;;;;;;;2074392;28;20351;-81
2021/12/06 00:14:57;;;;;;;;;;;;;;;;;;2074388;28;19917;-80
2021/12/06 00:15:58;;;;;;;;;;;;;;;;;;2073753;28;20371;-80
2021/12/06 00:16:59;;;;;;;;;;;;;;;;;;2074345;28;19909;-80
2021/12/06 00:18:00;;;;;;;;;;;;;;;;;;2090197;28;19909;-80
2021/12/06 00:19:00;;;;;;;;;;;;;;;;;;2090305;28;20023;-80
2021/12/06 00:20:00;;;;;;;;;;;;;;;;;;2074379;28;20547;-80
2021/12/06 00:21:02;;;;;;;;;;;;;;;;;;2074331;28;19910;-80
2021/12/06 00:22:04;;;;;;;;;;;;;;;;;;2073826;28;19917;-80
2021/12/06 00:23:04;;;;;;;;;;;;;;;;;;2073971;28;20000;-80
2021/12/06 00:24:04;;;;;;;;;;;;;;;;;;2073694;28;19909;-80
2021/12/06 00:25:07;;;;;;;;;;;;;;;;;;2073815;28;19909;-80
2021/12/06 00:26:09;;;;;;;;;;;;;;;;;;2073744;28;19909;-80
2021/12/06 00:27:09;;;;;;;;;;;;;;;;;;2074488;28;20129;-80
2021/12/06 00:28:09;;;;;;;;;;;;;;;;;;2073719;28;20344;-80
2021/12/06 00:29:10;;;;;;;;;;;;;;;;;;2073987;28;19909;-81
2021/12/06 00:30:12;;;;;;;;;;;;;;;;;;2073732;28;20419;-80
2021/12/06 00:31:13;;;;;;;;;;;;;;;;;;2073837;28;20357;-80
2021/12/06 00:32:13;;;;;;;;;;;;;;;;;;2074194;28;20263;-80
2021/12/06 00:33:16;;;;;;;;;;;;;;;;;;2077743;28;19974;-80
2021/12/06 00:34:18;;;;;;;;;;;;;;;;;;2090637;28;19908;-81
2021/12/06 00:35:22;;;;;;;;;;;;;;;;;;2082032;28;19920;-80
2021/12/06 00:36:28;;;;;;;;;;;;;;;;;;2081760;28;20320;-80
2021/12/06 00:37:41;;;;;;;;;;;;;;;;;;2082126;28;19909;-80
2021/12/06 00:38:42;;;;;;;;;;;;;;;;;;2083543;28;19999;-81
2021/12/06 00:39:44;;;;;;;;;;;;;;;;;;2090717;28;19917;-83
2021/12/06 00:40:46;;;;;;;;;;;;;;;;;;2090490;28;19920;-84
2021/12/06 00:41:47;;;;;;;;;;;;;;;;;;2090600;28;19939;-84
2021/12/06 00:42:47;;;;;;;;;;;;;;;;;;2090525;28;19973;-84
2021/12/06 00:43:47;;;;;;;;;;;;;;;;;;2081930;28;19913;-84
2021/12/06 00:44:51;;;;;;;;;;;;;;;;;;2081850;28;20304;-84
2021/12/06 00:45:51;;;;;;;;;;;;;;;;;;2090626;28;20003;-84
2021/12/06 00:46:54;;;;;;;;;;;;;;;;;;2081767;28;19909;-84
2021/12/06 00:47:55;;;;;;;;;;;;;;;;;;2082268;28;19911;-84
2021/12/06 00:48:55;;;;;;;;;;;;;;;;;;2081737;28;19909;-84
2021/12/06 00:49:55;;;;;;;;;;;;;;;;;;2073587;28;19916;-84
2021/12/06 00:50:56;;;;;;;;;;;;;;;;;;2081791;28;20291;-84
2021/12/06 00:51:56;;;;;;;;;;;;;;;;;;2090472;28;19909;-84
2021/12/06 00:52:56;;;;;;;;;;;;;;;;;;2090467;28;19973;-84
2021/12/06 00:53:59;;;;;;;;;;;;;;;;;;2090477;28;19942;-84
2021/12/06 00:55:00;;;;;;;;;;;;;;;;;;2081852;28;20036;-80
2021/12/06 00:56:00;;;;;;;;;;;;;;;;;;2081799;28;20132;-81
2021/12/06 00:57:02;;;;;;;;;;;;;;;;;;2090558;28;20054;-80
2021/12/06 00:58:03;;;;;;;;;;;;;;;;;;2090496;28;20046;-80
2021/12/06 00:59:03;;;;;;;;;;;;;;;;;;2081679;28;19936;-80
2021/12/06 01:00:07;;;;;;;;;;;;;;;;;;2073694;28;19914;-80
2021/12/06 01:01:08;;;;;;;;;;;;;;;;;;2082324;28;19921;-80
2021/12/06 01:02:09;;;;;;;;;;;;;;;;;;2090363;28;20077;-80
2021/12/06 01:03:12;;;;;;;;;;;;;;;;;;2090493;28;19913;-80
2021/12/06 01:04:18;;;;;;;;;;;;;;;;;;2090406;28;19916;-79
2021/12/06 01:05:22;;;;;;;;;;;;;;;;;;2090683;28;19919;-85
2021/12/06 01:06:25;;;;;;;;;;;;;;;;;;2080561;28;20007;-84
2021/12/06 01:07:25;;;;;;;;;;;;;;;;;;2081616;28;19909;-84
2021/12/06 01:08:29;;;;;;;;;;;;;;;;;;2081739;28;20011;-84
2021/12/06 01:09:29;;;;;;;;;;;;;;;;;;2090309;28;19909;-84
2021/12/06 01:10:30;;;;;;;;;;;;;;;;;;2090407;28;20178;-83
2021/12/06 01:11:30;;;;;;;;;;;;;;;;;;2090297;28;19986;-84
2021/12/06 01:12:33;;;;;;;;;;;;;;;;;;2090507;28;20271;-83
2021/12/06 01:13:34;;;;;;;;;;;;;;;;;;2090309;28;19952;-83
2021/12/06 01:14:34;;;;;;;;;;;;;;;;;;2090290;28;19909;-84
2021/12/06 01:15:38;;;;;;;;;;;;;;;;;;2081467;28;20368;-83
2021/12/06 01:16:41;;;;;;;;;;;;;;;;;;2082227;28;20268;-83
2021/12/06 01:17:41;;;;;;;;;;;;;;;;;;2090161;28;20306;-84
2021/12/06 01:18:42;;;;;;;;;;;;;;;;;;2081421;28;19921;-84
2021/12/06 01:19:42;;;;;;;;;;;;;;;;;;2081617;28;19912;-84
2021/12/06 01:20:52;;;;;;;;;;;;;;;;;;2090250;28;19978;-82
2021/12/06 01:22:05;;;;;;;;;;;;;;;;;;2090143;28;19951;-82
2021/12/06 01:23:09;;;;;;;;;;;;;;;;;;2090315;28;20010;-85
2021/12/06 01:24:11;;;;;;;;;;;;;;;;;;2090268;28;20304;-84
2021/12/06 01:31:14;;;;;;;;;;;;;;;;;;2090346;28;19909;-83
2021/12/06 01:32:01;;;;;;;;;;;;;;;;;;2081911;28;20294;-84
2021/12/06 01:39:37;;;;;;;;;;;;;;;;;;2090357;28;20335;-83
2021/12/06 01:40:37;;;;;;;;;;;;;;;;;;2090047;28;19967;-84
2021/12/06 01:41:42;;;;;;;;;;;;;;;;;;2090144;28;20354;-83
2021/12/06 01:42:43;;;;;;;;;;;;;;;;;;2090203;28;19927;-83
2021/12/06 01:44:02;;;;;;;;;;;;;;;;;;2090067;28;19924;-83
2021/12/06 01:45:03;;;;;;;;;;;;;;;;;;2090012;28;19912;-83
2021/12/06 01:46:03;;;;;;;;;;;;;;;;;;2090001;28;19920;-83
2021/12/06 01:47:04;;;;;;;;;;;;;;;;;;2081348;28;19995;-83
2021/12/06 01:48:04;;;;;;;;;;;;;;;;;;2081418;28;19970;-83
2021/12/06 01:49:05;;;;;;;;;;;;;;;;;;2089974;28;19909;-83
2021/12/06 01:50:14;;;;;;;;;;;;;;;;;;2090049;28;19909;-83
2021/12/06 01:51:14;;;;;;;;;;;;;;;;;;2090011;28;20042;-83
2021/12/06 01:52:16;;;;;;;;;;;;;;;;;;2089928;28;19909;-83
2021/12/06 01:53:16;;;;;;;;;;;;;;;;;;2089982;28;20283;-82
2021/12/06 01:54:17;;;;;;;;;;;;;;;;;;2081310;28;19919;-83
2021/12/06 01:55:19;;;;;;;;;;;;;;;;;;2089492;28;20259;-84
2021/12/06 01:56:19;;;;;;;;;;;;;;;;;;2089135;28;19943;-83
2021/12/06 01:57:20;;;;;;;;;;;;;;;;;;2081353;28;19959;-83
2021/12/06 01:58:21;;;;;;;;;;;;;;;;;;2090016;28;19920;-83
2021/12/06 01:59:22;;;;;;;;;;;;;;;;;;2081320;28;20410;-83
2021/12/06 02:00:35;;;;;;;;;;;;;;;;;;2081334;28;19913;-83
2021/12/06 02:01:35;;;;;;;;;;;;;;;;;;2090014;28;20367;-83
2021/12/06 02:02:36;;;;;;;;;;;;;;;;;;2089884;28;19920;-83
2021/12/06 02:03:37;;;;;;;;;;;;;;;;;;2089908;28;19940;-84
2021/12/06 02:04:40;;;;;;;;;;;;;;;;;;2089884;28;19966;-83
2021/12/06 02:05:42;;;;;;;;;;;;;;;;;;2089855;28;19909;-83
2021/12/06 02:06:43;;;;;;;;;;;;;;;;;;2089932;28;19913;-83
2021/12/06 02:07:44;;;;;;;;;;;;;;;;;;2089946;28;20009;-83
2021/12/06 02:08:44;;;;;;;;;;;;;;;;;;2089840;28;19909;-83
2021/12/06 02:09:45;;;;;;;;;;;;;;;;;;2081174;28;19996;-83
2021/12/06 02:10:45;;;;;;;;;;;;;;;;;;2081157;28;19909;-83
2021/12/06 02:11:46;;;;;;;;;;;;;;;;;;2089974;28;19909;-82
2021/12/06 02:12:49;;;;;;;;;;;;;;;;;;2089837;28;20395;-83
2021/12/06 02:13:58;;;;;;;;;;;;;;;;;;2090003;28;19909;-83
2021/12/06 02:15:22;;;;;;;;;;;;;;;;;;2090019;28;19908;-82
2021/12/06 02:16:31;;;;;;;;;;;;;;;;;;2089795;28;19912;-83
2021/12/06 02:17:37;;;;;;;;;;;;;;;;;;2089954;28;20335;-83
2021/12/06 02:19:41;;;;;;;;;;;;;;;;;;2090034;28;19974;-83
2021/12/06 02:20:58;;;;;;;;;;;;;;;;;;2089746;28;19909;-82
2021/12/06 02:22:01;;;;;;;;;;;;;;;;;;2089813;28;20382;-84
2021/12/06 02:23:02;;;;;;;;;;;;;;;;;;2089806;28;20352;-83
2021/12/06 02:24:07;;;;;;;;;;;;;;;;;;2089878;28;19919;-83
2021/12/06 02:25:14;;;;;;;;;;;;;;;;;;2081069;28;19995;-83
2021/12/06 02:26:15;;;;;;;;;;;;;;;;;;2082017;28;19921;-83
2021/12/06 02:27:16;;;;;;;;;;;;;;;;;;2089927;28;20276;-82
2021/12/06 02:28:16;;;;;;;;;;;;;;;;;;2089832;28;20003;-83
2021/12/06 02:29:16;;;;;;;;;;;;;;;;;;2089755;28;19908;-83
2021/12/06 02:30:17;;;;;;;;;;;;;;;;;;2089848;28;19944;-83
2021/12/06 02:31:20;;;;;;;;;;;;;;;;;;2080977;28;20353;-83
2021/12/06 02:32:21;;;;;;;;;;;;;;;;;;2081491;28;19913;-84
2021/12/06 02:33:22;;;;;;;;;;;;;;;;;;2089717;28;19979;-82
2021/12/06 02:34:23;;;;;;;;;;;;;;;;;;2089895;28;19936;-83
2021/12/06 02:35:23;;;;;;;;;;;;;;;;;;2089604;28;19908;-83
2021/12/06 02:36:25;;;;;;;;;;;;;;;;;;2089773;28;19909;-82
2021/12/06 02:37:29;;;;;;;;;;;;;;;;;;2089756;28;19916;-83
2021/12/06 02:38:29;;;;;;;;;;;;;;;;;;2089789;28;19919;-83
2021/12/06 02:39:30;;;;;;;;;;;;;;;;;;2089437;28;19956;-83
2021/12/06 02:40:34;;;;;;;;;;;;;;;;;;2081096;28;19909;-83
2021/12/06 02:41:34;;;;;;;;;;;;;;;;;;2081446;28;19957;-83
2021/12/06 02:42:35;;;;;;;;;;;;;;;;;;2089752;28;19913;-83
2021/12/06 02:43:36;;;;;;;;;;;;;;;;;;2089880;28;19974;-83
2021/12/06 02:44:36;;;;;;;;;;;;;;;;;;2090011;28;19964;-83
2021/12/06 02:45:37;;;;;;;;;;;;;;;;;;2089704;28;20021;-83
2021/12/06 02:46:37;;;;;;;;;;;;;;;;;;2081262;28;19908;-83
2021/12/06 02:47:40;;;;;;;;;;;;;;;;;;2081163;28;19909;-83
2021/12/06 02:48:40;;;;;;;;;;;;;;;;;;2089827;28;19924;-84
2021/12/06 02:49:43;;;;;;;;;;;;;;;;;;2089822;28;19913;-84
2021/12/06 02:50:44;;;;;;;;;;;;;;;;;;2089702;28;19909;-84
2021/12/06 02:51:44;;;;;;;;;;;;;;;;;;2089770;28;19919;-84
2021/12/06 02:52:44;;;;;;;;;;;;;;;;;;2089679;28;20405;-84
2021/12/06 02:53:45;;;;;;;;;;;;;;;;;;2089619;28;20366;-84
2021/12/06 02:54:54;;;;;;;;;;;;;;;;;;2089656;28;19908;-84
2021/12/06 02:56:04;;;;;;;;;;;;;;;;;;2089686;28;19916;-84
2021/12/06 02:57:33;;;;;;;;;;;;;;;;;;2089780;28;19966;-84
2021/12/06 02:59:42;;;;;;;;;;;;;;;;;;2089846;28;19909;-84
2021/12/06 03:00:45;;;;;;;;;;;;;;;;;;2080844;28;19913;-84
2021/12/06 03:01:49;;;;;;;;;;;;;;;;;;2081139;28;20284;-84
2021/12/06 03:02:50;;;;;;;;;;;;;;;;;;2089529;28;19990;-84
2021/12/06 03:03:53;;;;;;;;;;;;;;;;;;2089842;28;20327;-84
2021/12/06 03:05:03;;;;;;;;;;;;;;;;;;;;;
2021/12/06 03:06:09;;;;;;;;;;;;;;;;;;2080794;28;19919;-84
2021/12/06 03:07:17;;;;;;;;;;;;;;;;;;2089619;28;19909;-84
2021/12/06 03:08:33;;;;;;;;;;;;;;;;;;2081002;28;20287;-84
2021/12/06 03:09:36;;;;;;;;;;;;;;;;;;2084206;28;20294;-84
2021/12/06 03:10:39;;;;;;;;;;;;;;;;;;2089576;28;19919;-84
2021/12/06 03:11:48;;;;;;;;;;;;;;;;;;2089598;28;19916;-84
2021/12/06 03:12:49;;;;;;;;;;;;;;;;;;2089530;28;19909;-84
2021/12/06 03:13:50;;;;;;;;;;;;;;;;;;2080870;28;20391;-84
2021/12/06 03:14:55;;;;;;;;;;;;;;;;;;2080940;28;19971;-84
2021/12/06 03:15:55;;;;;;;;;;;;;;;;;;2089619;28;19977;-84
2021/12/06 03:16:56;;;;;;;;;;;;;;;;;;2089509;28;19916;-84
2021/12/06 03:17:57;;;;;;;;;;;;;;;;;;2089614;28;19935;-84
2021/12/06 03:19:00;;;;;;;;;;;;;;;;;;2089544;28;20356;-84
2021/12/06 03:20:04;;;;;;;;;;;;;;;;;;2089774;28;19908;-84
2021/12/06 03:21:05;;;;;;;;;;;;;;;;;;2091774;28;19909;-84
2021/12/06 03:22:09;;;;;;;;;;;;;;;;;;2090005;28;19967;-84
2021/12/06 03:23:10;;;;;;;;;;;;;;;;;;2089545;28;20347;-84
2021/12/06 03:24:10;;;;;;;;;;;;;;;;;;2097457;28;19999;-84
2021/12/06 03:25:11;;;;;;;;;;;;;;;;;;2097411;28;19920;-84
2021/12/06 03:26:12;;;;;;;;;;;;;;;;;;2089580;28;19908;-84
2021/12/06 03:27:13;;;;;;;;;;;;;;;;;;2089633;28;19912;-84
2021/12/06 03:28:13;;;;;;;;;;;;;;;;;;2080752;28;19913;-84
2021/12/06 03:29:14;;;;;;;;;;;;;;;;;;2089196;28;20299;-84
2021/12/06 03:30:14;;;;;;;;;;;;;;;;;;2097317;28;19919;-84
2021/12/06 03:31:15;;;;;;;;;;;;;;;;;;2089615;28;19909;-84
2021/12/06 03:32:15;;;;;;;;;;;;;;;;;;2089469;28;20298;-84
2021/12/06 03:33:16;;;;;;;;;;;;;;;;;;2089476;28;20335;-84
2021/12/06 03:34:17;;;;;;;;;;;;;;;;;;2080776;28;19948;-84
2021/12/06 03:35:17;;;;;;;;;;;;;;;;;;2080926;28;19940;-84
2021/12/06 03:36:19;;;;;;;;;;;;;;;;;;2089414;28;19920;-84
2021/12/06 03:37:19;;;;;;;;;;;;;;;;;;2089589;28;19909;-84
2021/12/06 03:38:19;;;;;;;;;;;;;;;;;;2089493;28;19977;-84
2021/12/06 03:39:23;;;;;;;;;;;;;;;;;;2080822;28;20383;-84
2021/12/06 03:40:23;;;;;;;;;;;;;;;;;;2081178;28;19917;-84
2021/12/06 03:41:26;;;;;;;;;;;;;;;;;;2089529;28;20256;-84
2021/12/06 03:42:26;;;;;;;;;;;;;;;;;;2089431;28;19912;-84
2021/12/06 03:43:26;;;;;;;;;;;;;;;;;;2097453;28;20413;-84
2021/12/06 03:44:28;;;;;;;;;;;;;;;;;;2088909;28;19982;-84
2021/12/06 03:45:28;;;;;;;;;;;;;;;;;;2080814;28;20429;-84
2021/12/06 03:46:30;;;;;;;;;;;;;;;;;;2080767;28;19909;-84
2021/12/06 03:47:31;;;;;;;;;;;;;;;;;;2089286;28;20243;-84
2021/12/06 03:48:32;;;;;;;;;;;;;;;;;;2097324;28;19923;-84
2021/12/06 03:49:32;;;;;;;;;;;;;;;;;;2089573;28;19920;-84
2021/12/06 03:50:32;;;;;;;;;;;;;;;;;;2089434;28;19920;-84
2021/12/06 03:51:33;;;;;;;;;;;;;;;;;;2090250;28;19909;-84
2021/12/06 03:52:33;;;;;;;;;;;;;;;;;;2090904;28;20019;-84
2021/12/06 03:53:33;;;;;;;;;;;;;;;;;;2091071;28;19936;-84
2021/12/06 03:54:34;;;;;;;;;;;;;;;;;;2091036;28;19908;-84
2021/12/06 03:55:34;;;;;;;;;;;;;;;;;;2090965;28;19983;-84
2021/12/06 03:56:41;;;;;;;;;;;;;;;;;;2091002;28;19908;-84
2021/12/06 03:57:41;;;;;;;;;;;;;;;;;;2090980;28;20017;-84
2021/12/06 03:58:44;;;;;;;;;;;;;;;;;;2082317;28;20325;-84
2021/12/06 03:59:44;;;;;;;;;;;;;;;;;;2082584;28;20386;-82
2021/12/06 04:00:45;;;;;;;;;;;;;;;;;;2090951;28;19908;-83
2021/12/06 04:01:47;;;;;;;;;;;;;;;;;;2091004;28;19991;-83
2021/12/06 04:02:50;;;;;;;;;;;;;;;;;;2082129;28;20343;-83
2021/12/06 04:03:50;;;;;;;;;;;;;;;;;;2082585;28;19959;-82
2021/12/06 04:04:51;;;;;;;;;;;;;;;;;;2090846;28;19939;-82
2021/12/06 04:05:51;;;;;;;;;;;;;;;;;;2090768;28;20023;-83
2021/12/06 04:06:52;;;;;;;;;;;;;;;;;;2091054;28;19918;-83
2021/12/06 04:07:52;;;;;;;;;;;;;;;;;;2090875;28;19912;-82
2021/12/06 04:08:52;;;;;;;;;;;;;;;;;;2090937;28;19916;-83
2021/12/06 04:09:53;;;;;;;;;;;;;;;;;;2090822;28;19909;-84
2021/12/06 04:10:55;;;;;;;;;;;;;;;;;;2091141;28;19909;-83
2021/12/06 04:11:55;;;;;;;;;;;;;;;;;;2090823;28;20324;-84
2021/12/06 04:12:57;;;;;;;;;;;;;;;;;;2082131;28;19920;-82
2021/12/06 04:13:58;;;;;;;;;;;;;;;;;;2082320;28;20360;-82
2021/12/06 04:14:58;;;;;;;;;;;;;;;;;;2090837;28;19915;-83
2021/12/06 04:15:59;;;;;;;;;;;;;;;;;;2090694;28;19901;-83
2021/12/06 04:16:59;;;;;;;;;;;;;;;;;;2090776;28;19909;-83
2021/12/06 04:17:59;;;;;;;;;;;;;;;;;;2098522;28;19920;-83
2021/12/06 04:19:00;;;;;;;;;;;;;;;;;;2098695;28;19908;-82
2021/12/06 04:20:01;;;;;;;;;;;;;;;;;;2081972;28;19909;-83
2021/12/06 04:21:01;;;;;;;;;;;;;;;;;;2082156;28;20344;-83
2021/12/06 04:22:03;;;;;;;;;;;;;;;;;;2090647;28;20366;-83
2021/12/06 04:23:04;;;;;;;;;;;;;;;;;;2082231;28;20004;-84
2021/12/06 04:24:05;;;;;;;;;;;;;;;;;;2082135;28;19979;-83
2021/12/06 04:25:09;;;;;;;;;;;;;;;;;;2082046;28;19921;-83
2021/12/06 04:26:10;;;;;;;;;;;;;;;;;;2082411;28;20295;-84
2021/12/06 04:27:15;;;;;;;;;;;;;;;;;;2082050;28;19999;-83
2021/12/06 04:28:18;;;;;;;;;;;;;;;;;;2082525;28;19948;-83
2021/12/06 04:29:18;;;;;;;;;;;;;;;;;;2090827;28;19912;-84
2021/12/06 04:30:19;;;;;;;;;;;;;;;;;;2081899;28;20388;-83
2021/12/06 04:31:19;;;;;;;;;;;;;;;;;;2082014;28;20343;-82
2021/12/06 04:32:21;;;;;;;;;;;;;;;;;;2090533;28;20074;-83
2021/12/06 04:33:21;;;;;;;;;;;;;;;;;;2090646;28;19999;-83
2021/12/06 04:34:22;;;;;;;;;;;;;;;;;;2090594;28;19908;-83
2021/12/06 04:35:25;;;;;;;;;;;;;;;;;;2081882;28;19920;-83
2021/12/06 04:36:26;;;;;;;;;;;;;;;;;;2082203;28;19919;-83
2021/12/06 04:37:26;;;;;;;;;;;;;;;;;;2090738;28;19913;-83
2021/12/06 04:38:26;;;;;;;;;;;;;;;;;;2090681;28;19963;-83
2021/12/06 04:39:28;;;;;;;;;;;;;;;;;;2081931;28;20222;-83
2021/12/06 04:40:30;;;;;;;;;;;;;;;;;;2082089;28;19971;-83
2021/12/06 04:41:31;;;;;;;;;;;;;;;;;;2081827;28;19932;-83
2021/12/06 04:42:31;;;;;;;;;;;;;;;;;;2081837;28;19913;-83
2021/12/06 04:43:31;;;;;;;;;;;;;;;;;;2090502;28;19920;-83
2021/12/06 04:44:32;;;;;;;;;;;;;;;;;;2091114;28;20122;-83
2021/12/06 04:45:32;;;;;;;;;;;;;;;;;;2090430;28;19912;-84
2021/12/06 04:46:33;;;;;;;;;;;;;;;;;;2090690;28;19923;-83
2021/12/06 04:47:34;;;;;;;;;;;;;;;;;;2090528;28;20276;-84
2021/12/06 04:48:34;;;;;;;;;;;;;;;;;;2090540;28;19919;-83
2021/12/06 04:49:34;;;;;;;;;;;;;;;;;;2090653;28;19909;-85
2021/12/06 04:50:36;;;;;;;;;;;;;;;;;;2081856;28;19927;-84
2021/12/06 04:51:40;;;;;;;;;;;;;;;;;;2081931;28;20008;-84
2021/12/06 04:52:41;;;;;;;;;;;;;;;;;;2090488;28;19919;-84
2021/12/06 04:53:41;;;;;;;;;;;;;;;;;;2090507;28;20403;-84
2021/12/06 04:54:44;;;;;;;;;;;;;;;;;;2090591;28;19909;-84
2021/12/06 04:55:50;;;;;;;;;;;;;;;;;;2081591;28;19901;-84
2021/12/06 04:56:52;;;;;;;;;;;;;;;;;;2082580;28;19909;-84
2021/12/06 04:57:53;;;;;;;;;;;;;;;;;;2081781;28;19913;-84
2021/12/06 04:58:56;;;;;;;;;;;;;;;;;;2081853;28;20280;-84
2021/12/06 05:00:09;;;;;;;;;;;;;;;;;;2090582;28;19908;-84
2021/12/06 05:01:12;;;;;;;;;;;;;;;;;;2090361;28;19919;-84
2021/12/06 05:02:15;;;;;;;;;;;;;;;;;;2090124;28;19912;-84
2021/12/06 05:03:16;;;;;;;;;;;;;;;;;;2090597;28;19919;-84
2021/12/06 05:04:22;;;;;;;;;;;;;;;;;;2090278;28;19955;-83
2021/12/06 05:05:24;;;;;;;;;;;;;;;;;;2090573;28;20362;-83
2021/12/06 05:06:27;;;;;;;;;;;;;;;;;;2090567;28;19916;-83
2021/12/06 05:07:41;;;;;;;;;;;;;;;;;;2090733;28;19909;-83
2021/12/06 05:08:45;;;;;;;;;;;;;;;;;;2090440;28;20390;-83
2021/12/06 05:09:45;;;;;;;;;;;;;;;;;;2081630;28;20471;-83
2021/12/06 05:10:45;;;;;;;;;;;;;;;;;;2081713;28;20000;-82
2021/12/06 05:11:46;;;;;;;;;;;;;;;;;;2098179;28;19908;-82
2021/12/06 05:12:47;;;;;;;;;;;;;;;;;;2089934;28;19920;-84
2021/12/06 05:13:48;;;;;;;;;;;;;;;;;;2081756;28;19913;-83
2021/12/06 05:14:49;;;;;;;;;;;;;;;;;;2090393;28;20005;-83
2021/12/06 05:15:49;;;;;;;;;;;;;;;;;;2090469;28;20003;-84
2021/12/06 05:16:50;;;;;;;;;;;;;;;;;;2090218;28;19915;-83
2021/12/06 05:17:50;;;;;;;;;;;;;;;;;;2081626;28;19991;-83
2021/12/06 05:18:50;;;;;;;;;;;;;;;;;;2081566;28;20043;-83
2021/12/06 05:19:51;;;;;;;;;;;;;;;;;;2098094;28;19908;-83
2021/12/06 05:20:51;;;;;;;;;;;;;;;;;;2089851;28;19909;-83
2021/12/06 05:21:51;;;;;;;;;;;;;;;;;;2081801;28;19916;-83
2021/12/06 05:22:52;;;;;;;;;;;;;;;;;;2090256;28;20365;-83
2021/12/06 05:23:52;;;;;;;;;;;;;;;;;;2081721;28;20369;-83
2021/12/06 05:24:52;;;;;;;;;;;;;;;;;;2081685;28;19980;-83
2021/12/06 05:25:53;;;;;;;;;;;;;;;;;;2090273;28;20322;-83
2021/12/06 05:26:55;;;;;;;;;;;;;;;;;;2090255;28;19960;-83
2021/12/06 05:27:58;;;;;;;;;;;;;;;;;;2090346;28;19912;-83
2021/12/06 05:29:01;;;;;;;;;;;;;;;;;;2090145;28;20324;-83
2021/12/06 05:30:04;;;;;;;;;;;;;;;;;;2081578;28;19909;-83
2021/12/06 05:31:13;;;;;;;;;;;;;;;;;;2073431;28;19917;-83
2021/12/06 05:32:13;;;;;;;;;;;;;;;;;;2081420;28;19979;-83
2021/12/06 05:33:27;;;;;;;;;;;;;;;;;;2081390;28;19912;-83
2021/12/06 05:34:34;;;;;;;;;;;;;;;;;;2075421;28;19968;-83
2021/12/06 05:35:35;;;;;;;;;;;;;;;;;;2084276;28;20366;-85
2021/12/06 05:36:35;;;;;;;;;;;;;;;;;;2090186;28;19919;-85
2021/12/06 05:37:43;;;;;;;;;;;;;;;;;;2081349;28;19908;-84
2021/12/06 05:38:43;;;;;;;;;;;;;;;;;;2082631;28;20007;-83
2021/12/06 05:39:44;;;;;;;;;;;;;;;;;;2090087;28;20335;-84
2021/12/06 05:40:46;;;;;;;;;;;;;;;;;;2090170;28;20003;-85
2021/12/06 05:41:47;;;;;;;;;;;;;;;;;;2090128;28;19909;-83
2021/12/06 05:42:47;;;;;;;;;;;;;;;;;;2090092;28;20398;-84
2021/12/06 05:43:48;;;;;;;;;;;;;;;;;;2090045;28;20415;-84
2021/12/06 05:44:49;;;;;;;;;;;;;;;;;;2090145;28;19919;-84
2021/12/06 05:45:49;;;;;;;;;;;;;;;;;;2081228;28;20300;-84
2021/12/06 05:46:50;;;;;;;;;;;;;;;;;;2081449;28;19909;-84
2021/12/06 05:47:51;;;;;;;;;;;;;;;;;;2097838;28;19908;-84
2021/12/06 05:48:51;;;;;;;;;;;;;;;;;;2089594;28;19920;-84
2021/12/06 05:49:51;;;;;;;;;;;;;;;;;;2081330;28;19920;-83
2021/12/06 05:50:52;;;;;;;;;;;;;;;;;;2081332;28;19909;-84
2021/12/06 05:51:52;;;;;;;;;;;;;;;;;;2078590;28;19917;-84
2021/12/06 05:52:54;;;;;;;;;;;;;;;;;;2088173;28;19917;-83
2021/12/06 05:53:57;;;;;;;;;;;;;;;;;;2079561;28;19908;-84
2021/12/06 05:54:57;;;;;;;;;;;;;;;;;;2081481;28;19909;-84
2021/12/06 05:55:57;;;;;;;;;;;;;;;;;;2091608;28;19916;-84
2021/12/06 05:57:01;;;;;;;;;;;;;;;;;;2089528;28;19927;-84
2021/12/06 05:58:03;;;;;;;;;;;;;;;;;;2087325;28;20291;-84
2021/12/06 05:59:03;;;;;;;;;;;;;;;;;;2089674;28;20409;-84
2021/12/06 06:00:05;;;;;;;;;;;;;;;;;;2089540;28;19966;-83
2021/12/06 06:01:05;;;;;;;;;;;;;;;;;;2089884;28;20320;-83
2021/12/06 06:02:32;;;;;;;;;;;;;;;;;;2080837;28;19916;-83
2021/12/06 06:05:47;;;;;;;;;;;;;;;;;;2070708;28;20368;-83
2021/12/06 06:06:50;;;;;;;;;;;;;;;;;;2071397;28;19920;-82
2021/12/06 06:08:20;;;;;;;;;;;;;;;;;;2064345;28;20012;-82
2021/12/06 06:11:44;;;;;;;;;;;;;;;;;;;;;
2021/12/06 06:14:32;;;;;;;;;;;;;;;;;;2043911;28;19917;-83
2021/12/06 06:15:35;;;;;;;;;;;;;;;;;;2071785;28;19906;-82
2021/12/06 06:16:47;;;;;;;;;;;;;;;;;;2072458;28;20272;-83
2021/12/06 06:17:47;;;;;;;;;;;;;;;;;;2082152;28;19916;-83
2021/12/06 06:18:52;;;;;;;;;;;;;;;;;;2089868;28;19912;-83
2021/12/06 06:19:58;;;;;;;;;;;;;;;;;;2080918;28;19956;-83
2021/12/06 06:21:00;;;;;;;;;;;;;;;;;;2070694;28;19921;-83
2021/12/06 06:23:22;;;;;;;;;;;;;;;;;;2087761;28;20259;-82
2021/12/06 06:24:23;;;;;;;;;;;;;;;;;;2089747;28;19917;-84
2021/12/06 06:25:26;;;;;;;;;;;;;;;;;;2079755;28;20075;-84
2021/12/06 06:26:53;;;;;;;;;;;;;;;;;;2072730;28;20249;-83
2021/12/06 06:30:02;;;;;;;;;;;;;;;;;;2045745;28;19989;-83
2021/12/06 06:31:03;;;;;;;;;;;;;;;;;;2081912;28;20011;-83
2021/12/06 06:32:04;;;;;;;;;;;;;;;;;;2089199;28;19924;-84
2021/12/06 06:33:25;;;;;;;;;;;;;;;;;;2089587;28;19909;-84
2021/12/06 06:34:37;;;;;;;;;;;;;;;;;;2084987;28;19909;-84
2021/12/06 06:35:43;;;;;;;;;;;;;;;;;;2073983;28;19909;-84
2021/12/06 06:36:46;;;;;;;;;;;;;;;;;;2077443;28;20299;-83
2021/12/06 06:38:07;;;;;;;;;;;;;;;;;;2085899;28;19916;-84
2021/12/06 06:39:12;;;;;;;;;;;;;;;;;;2076593;28;20272;-83
2021/12/06 06:40:30;;;;;;;;;;;;;;;;;;2076099;28;19909;-83
2021/12/06 06:41:31;;;;;;;;;;;;;;;;;;2086401;28;19917;-83
2021/12/06 06:42:31;;;;;;;;;;;;;;;;;;2084330;28;20378;-83
2021/12/06 06:43:52;;;;;;;;;;;;;;;;;;2078121;28;19920;-84
2021/12/06 06:44:53;;;;;;;;;;;;;;;;;;2080926;28;19917;-84
2021/12/06 06:46:03;;;;;;;;;;;;;;;;;;;;;
2021/12/06 06:47:24;;;;;;;;;;;;;;;;;;2084403;28;19909;-84
2021/12/06 06:48:24;;;;;;;;;;;;;;;;;;2083979;28;19909;-83
2021/12/06 06:50:37;;;;;;;;;;;;;;;;;;;;;
2021/12/06 06:51:29;;;;;;;;;;;;;;;;;;2075359;28;19913;-84
2021/12/06 06:52:29;;;;;;;;;;;;;;;;;;2085335;28;19920;-83
2021/12/06 06:54:11;;;;;;;;;;;;;;;;;;2084998;28;19912;-83
2021/12/06 06:56:45;;;;;;;;;;;;;;;;;;2043647;28;19911;-84
2021/12/06 06:57:51;;;;;;;;;;;;;;;;;;2066834;28;19920;-84
2021/12/06 06:58:51;;;;;;;;;;;;;;;;;;2070192;28;19909;-84
2021/12/06 06:59:52;;;;;;;;;;;;;;;;;;2075648;28;19917;-84
2021/12/06 07:00:52;;;;;;;;;;;;;;;;;;2086627;28;19978;-84
2021/12/06 07:01:53;;;;;;;;;;;;;;;;;;2084127;28;19968;-84
2021/12/06 07:04:36;;;;;;;;;;;;;;;;;;2060396;28;19914;-84
2021/12/06 07:05:37;;;;;;;;;;;;;;;;;;2070238;28;19909;-84
2021/12/06 07:06:37;;;;;;;;;;;;;;;;;;2072747;28;20306;-84
2021/12/06 07:07:41;;;;;;;;;;;;;;;;;;2072713;28;19921;-84
2021/12/06 07:08:44;;;;;;;;;;;;;;;;;;2065275;28;19949;-84
2021/12/06 07:09:44;;;;;;;;;;;;;;;;;;2064669;28;19916;-84
2021/12/06 07:10:49;;;;;;;;;;;;;;;;;;2064735;28;19917;-84
2021/12/06 07:11:50;;;;;;;;;;;;;;;;;;2081730;28;20364;-84
2021/12/06 07:12:52;;;;;;;;;;;;;;;;;;2081293;28;19909;-83
2021/12/06 07:13:52;;;;;;;;;;;;;;;;;;2081070;28;19948;-83
2021/12/06 07:14:53;;;;;;;;;;;;;;;;;;2081449;28;20261;-83
2021/12/06 07:15:56;;;;;;;;;;;;;;;;;;2081297;28;20344;-83
2021/12/06 07:16:57;;;;;;;;;;;;;;;;;;2081167;28;20302;-83
2021/12/06 07:17:57;;;;;;;;;;;;;;;;;;2071931;28;19920;-83
2021/12/06 07:18:58;;;;;;;;;;;;;;;;;;2072112;28;19909;-83
2021/12/06 07:20:00;;;;;;;;;;;;;;;;;;2071888;28;19920;-83
2021/12/06 07:21:00;;;;;;;;;;;;;;;;;;2072472;28;19921;-83
2021/12/06 07:22:01;;;;;;;;;;;;;;;;;;2080612;28;20279;-83
2021/12/06 07:23:03;;;;;;;;;;;;;;;;;;2072043;28;19933;-83
2021/12/06 07:24:04;;;;;;;;;;;;;;;;;;2064162;28;19999;-82
2021/12/06 07:25:04;;;;;;;;;;;;;;;;;;2072283;28;19960;-82
2021/12/06 07:26:06;;;;;;;;;;;;;;;;;;2080747;28;19909;-82
2021/12/06 07:27:07;;;;;;;;;;;;;;;;;;2082335;28;19971;-82
2021/12/06 07:28:07;;;;;;;;;;;;;;;;;;2082320;28;19959;-82
2021/12/06 07:29:07;;;;;;;;;;;;;;;;;;2082380;28;20389;-82
2021/12/06 07:30:09;;;;;;;;;;;;;;;;;;2082305;28;19963;-82
2021/12/06 07:31:14;;;;;;;;;;;;;;;;;;2082404;28;20288;-82
2021/12/06 07:32:14;;;;;;;;;;;;;;;;;;2082473;28;19913;-82
2021/12/06 07:33:14;;;;;;;;;;;;;;;;;;2085098;28;20355;-82
2021/12/06 07:34:15;;;;;;;;;;;;;;;;;;2091187;28;19916;-82
2021/12/06 07:35:15;;;;;;;;;;;;;;;;;;2098861;28;20302;-82
2021/12/06 07:36:16;;;;;;;;;;;;;;;;;;2090506;28;19991;-83
2021/12/06 07:37:16;;;;;;;;;;;;;;;;;;2082483;28;19909;-83